Paris, France

16:00 CEST le 28 mai 2015 (GMT +0200)
Charles de Gaulle | | Change Station
CLOSE
Current Station
Aéroport
Location: Paris / Charles De Gaulle,
Altitude: 367 ft
Stations météo à proximité

Alt. 367 ft 49.02 °N, 2.53 °E | Updated 30 minutes ago

Mostly Cloudy
Nuageux
64 ° F
Paraît 64 ° F
N
12
Vent Variable Vent de Ouest

Aujourd'hui
Haut(e) -- | Bas -- ° F
--% Risque de précip.
Hier
Haut(e) -- | Bas -- ° F
Precip. -- pouce
5:53 AM 9:41 PM
Lune gibbeuse croissante, 76% visible
Pression 30.04 pouce
Visibilité 6.2 Miles terrestres
Nuages Nuages épars 3100 ft
Nuageux 5000 ft
Point de rosée 50 ° F
Humidité 59%
Précipitations 0.00 pouce
Profondeur de la couche neigeuse Non disponible.
UV 5 sur 12
Pollen Non disponible.
Qualité de l'air Non disponible.
Flu Activity Non disponible.
METAR LFPG 281330Z 26010KT 230V300 9999 SCT031 BKN050 18/10 Q1017 NOSIG

More Conditions Fewer Conditions

Pression 30.04 pouce
Visibilité 6.2 Miles terrestres
Nuages Nuages épars 3100 ft
Nuageux 5000 ft
Point de rosée 50 ° F
Humidité 59%
Précipitations 0.00 pouce
Profondeur de la couche neigeuse Non disponible.
UV 5 sur 12
Pollen Non disponible.
Qualité de l'air Non disponible.
Flu Activity Non disponible.
METAR LFPG 281330Z 26010KT 230V300 9999 SCT031 BKN050 18/10 Q1017 NOSIG

More Conditions Fewer Conditions

10-Day Weather Forecast

Almanac

Astronomie

May. 28, 2015 Lever Coucher
Temps réel
Crépuscule civil
Crépuscule nautique
Crépuscule astronomique
Lune
Durée de lumière visible
Longueur du jour
Tomorrow will be .
, % of the Moon is Illuminated

Extrêmes aujourd'hui

Country Highs Country Lows

Community

WunderPhotos

Upload Photos

1,824,979 Photos téléchargées !

WunderBlogs® & News

Nearby

Qualité de l'air

  Qualité de l'air Indice de la qualité de l'air Polluant
Not available.

Épaisseur de neige

Station Depth Altitude

Activité sismique

Ville Distance Mag. Time & Date
Minimum magnitude displayed is 2.5.

Températures des eaux côtières

Lieu Température

Stations

Stations météo à proximité

Emplacement de la station Température Refroidissement éolien Point de rosée Humidité Vent Precip. Alt. Mise à jour Type